Brandon, MS (39042)

9:22 AM CDT on July 24, 2017 (GMT -0500)
Country Meadows | | Change Station

Elev 367 ft 32.25 °N, 90.01 °W | Updated 16 seconds ago

Overcast
Overcast
81.0 °F
Feels Like 89 °F
N
2.0
Wind Variable Wind from South

Today
High -- | Low -- °F
--% Chance of Precip.
Yesterday
High -- | Low -- °F
Precip. -- in
Pressure 29.98 in
Visibility 10.0 miles
Clouds Mostly Cloudy 1100 ft
Heat Index 89 °F
Dew Point 78 °F
Humidity 93%
Rainfall 0.00 in
Snow Depth Not available.
6:09 AM 8:02 PM
New Moon, 2% visible
METAR KJAN 241354Z 23005KT 10SM BKN011 26/24 A2999 RMK AO2 SLP150 T02610239
Pressure 29.98 in
Visibility 10.0 miles
Clouds Mostly Cloudy 1100 ft
Heat Index 89 °F
Dew Point 78 °F
Humidity 93%
Rainfall 0.00 in
Snow Depth Not available.
6:09 AM 8:02 PM
New Moon, 2% visible
METAR KJAN 241354Z 23005KT 10SM BKN011 26/24 A2999 RMK AO2 SLP150 T02610239

Get Severe Weather Alerts

Thanks for signing up!

Be on the lookout for a verification email in your inbox.

You'll start receiving the daily forecast at 6 AM.

×

10-Day Weather Forecast

Almanac

Astronomy

Jul. 24, 2017 Rise Set
Actual Time
Civil Twilight
Nautical Twilight
Astronomical Twilight
Moon
Length of Visible Light
Length of Day
Tomorrow will be .
, % of the Moon is Illuminated

Today's Extremes

State Highs State Lows

Community

WunderPhotos

Category 6

Welcome to Category 6. This is the collective home for Weather Underground's featured writeups by Dr. Jeff Masters (right), Bob Henson (left), Chris Burt, and other regular contributors.

Nearby

Air Quality

  Air Quality AQ Index Pollutant
Not available.

Snow Depth

Station Depth Elevation

Earthquake Activity

City Distance Mag. Time & Date
Minimum magnitude displayed is 2.5.

Coastal Water Temperatures

Place Temperature

Stations

Nearby Weather Stations

Station Location Temp. Windchill Dew Point Humidity Wind Precip. Elev Updated Type
                   

Watches & Warnings

There are currently no watches in effect.